Time;durP1;ratioP1;P1;durP2;ratioP2;P2;SDS_P1;SDS_P2;PMS_P1;PMS_P2;Temp;Humidity;BMP_temperature;BMP_pressure;BME280_temperature;BME280_humidity;BME280_pressure;Samples;Min_cycle;Max_cycle;Signal;HPM_P1;HPM_P2
2024/01/15 00:01:02;;;;;;;;;;;;;;;2.38;100.00;100438.59;5095387;28;20027;-72
2024/01/15 00:03:27;;;;;;;;;;;;;;;2.34;100.00;100438.69;5096399;28;19987;-72
2024/01/15 00:05:52;;;;;;;;;;;;;;;2.28;100.00;100437.03;5094596;28;20222;-73
2024/01/15 00:08:17;;;;;;;;;;;;;;;2.29;100.00;100423.22;5096430;28;19951;-73
2024/01/15 00:10:43;;;;;;;;;;;;;;;2.22;100.00;100416.41;5093571;28;19939;-73
2024/01/15 00:13:08;;;;;;;;;;;;;;;2.16;100.00;100411.34;5075775;28;19921;-73
2024/01/15 00:15:33;;;;;;;;;;;;;;;2.17;100.00;100410.47;5076150;28;19958;-73
2024/01/15 00:17:58;;;;;;;;;;;;;;;2.16;100.00;100409.59;5095755;28;19928;-73
2024/01/15 00:20:23;;;;;;;;;;;;;;;2.17;100.00;100402.72;5092449;28;20139;-73
2024/01/15 00:22:49;;;;;;;;;;;;;;;2.14;100.00;100397.59;5076201;28;19921;-73
2024/01/15 00:25:14;;;;;;;;;;;;;;;2.17;100.00;100395.81;5078498;28;19916;-73
2024/01/15 00:27:39;;;;;;;;;;;;;;;2.14;100.00;100397.59;5082573;28;20119;-73
2024/01/15 00:30:05;;;;;;;;;;;;;;;2.12;100.00;100387.28;5077303;28;19947;-73
2024/01/15 00:32:30;;;;;;;;;;;;;;;2.11;100.00;100386.44;5096084;28;19920;-73
2024/01/15 00:34:55;;;;;;;;;;;;;;;2.15;100.00;100383.78;5095776;28;19943;-73
2024/01/15 00:37:20;;;;;;;;;;;;;;;2.21;100.00;100381.13;5087911;28;19984;-73
2024/01/15 00:39:46;;;;;;;;;;;;;;;2.19;100.00;100381.16;5075827;28;19925;-73
2024/01/15 00:42:11;;;;;;;;;;;;;;;2.13;100.00;100375.22;5090370;28;19909;-73
2024/01/15 00:44:36;;;;;;;;;;;;;;;2.16;100.00;100380.34;5095421;28;19984;-73
2024/01/15 00:47:02;;;;;;;;;;;;;;;2.21;100.00;100387.16;5095143;28;19916;-73
2024/01/15 00:49:27;;;;;;;;;;;;;;;2.25;100.00;100385.38;5095620;28;19919;-73
2024/01/15 00:51:52;;;;;;;;;;;;;;;2.33;100.00;100382.69;5087700;28;20015;-73
2024/01/15 00:54:17;;;;;;;;;;;;;;;2.32;100.00;100371.50;5095633;28;20167;-73
2024/01/15 00:56:43;;;;;;;;;;;;;;;2.27;100.00;100374.16;5094948;28;19922;-73
2024/01/15 00:59:10;;;;;;;;;;;;;;;2.22;100.00;100367.31;5094709;28;20157;-73
2024/01/15 01:01:35;;;;;;;;;;;;;;;2.16;100.00;100370.84;5095587;28;19915;-73
2024/01/15 01:04:00;;;;;;;;;;;;;;;2.20;100.00;100369.09;5094861;28;19920;-73
2024/01/15 01:06:26;;;;;;;;;;;;;;;2.24;100.00;100373.34;5096436;28;20019;-73
2024/01/15 01:08:51;;;;;;;;;;;;;;;2.25;100.00;100364.72;5081993;28;20157;-73
2024/01/15 01:11:16;;;;;;;;;;;;;;;2.18;100.00;100363.09;5088150;28;19927;-73
2024/01/15 01:13:42;;;;;;;;;;;;;;;2.20;100.00;100366.50;5085809;28;19963;-73
2024/01/15 01:16:07;;;;;;;;;;;;;;;2.19;100.00;100364.81;5086104;28;19920;-73
2024/01/15 01:18:32;;;;;;;;;;;;;;;2.18;100.00;100370.84;5094949;28;19927;-73
2024/01/15 01:20:58;;;;;;;;;;;;;;;2.16;100.00;100365.69;5093900;28;19943;-73
2024/01/15 01:23:23;;;;;;;;;;;;;;;2.13;100.00;100358.00;5077288;28;19976;-73
2024/01/15 01:25:48;;;;;;;;;;;;;;;2.19;100.00;100363.06;5095326;28;19920;-73
2024/01/15 01:28:13;;;;;;;;;;;;;;;2.20;100.00;100363.91;5094611;28;19927;-73
2024/01/15 01:30:39;;;;;;;;;;;;;;;2.20;100.00;100362.22;5094736;28;19920;-73
2024/01/15 01:33:04;;;;;;;;;;;;;;;2.20;100.00;100372.53;5094758;28;19920;-73
2024/01/15 01:35:29;;;;;;;;;;;;;;;2.20;100.00;100369.09;5093103;28;19995;-72
2024/01/15 01:37:55;;;;;;;;;;;;;;;2.17;100.00;100363.97;5094719;28;19935;-72
2024/01/15 01:40:20;;;;;;;;;;;;;;;2.18;100.00;100363.09;5095256;28;20004;-72
2024/01/15 01:42:45;;;;;;;;;;;;;;;2.19;100.00;100359.63;5076457;28;19920;-72
2024/01/15 01:45:11;;;;;;;;;;;;;;;2.16;100.00;100357.09;5074976;28;19927;-72
2024/01/15 01:47:37;;;;;;;;;;;;;;;2.10;100.00;100365.78;5076095;28;20229;-72
2024/01/15 01:50:02;;;;;;;;;;;;;;;2.11;100.00;100358.00;5094001;28;20006;-72
2024/01/15 01:52:28;;;;;;;;;;;;;;;2.16;100.00;100364.84;5095053;28;19916;-72
2024/01/15 01:54:53;;;;;;;;;;;;;;;2.15;100.00;100347.63;5090857;28;19920;-72
2024/01/15 01:57:19;;;;;;;;;;;;;;;2.10;100.00;100347.69;5083591;28;19912;-72
2024/01/15 01:59:45;;;;;;;;;;;;;;;2.07;100.00;100346.03;5077450;28;20845;-72
2024/01/15 02:02:11;;;;;;;;;;;;;;;2.05;100.00;100352.06;5094779;28;19983;-72
2024/01/15 02:04:36;;;;;;;;;;;;;;;2.02;100.00;100352.97;5094043;28;19920;-72
2024/01/15 02:07:02;;;;;;;;;;;;;;;2.03;100.00;100340.91;5094961;28;19916;-72
2024/01/15 02:09:27;;;;;;;;;;;;;;;2.04;100.00;100346.06;5095003;28;20215;-72
2024/01/15 02:11:53;;;;;;;;;;;;;;;2.04;100.00;100345.22;5093649;28;19991;-72
2024/01/15 02:14:18;;;;;;;;;;;;;;;2.02;100.00;100355.56;5097423;28;20225;-72
2024/01/15 02:16:43;;;;;;;;;;;;;;;1.97;100.00;100343.59;5099347;28;20142;-72
2024/01/15 02:19:14;;;;;;;;;;;;;;;1.98;100.00;100338.38;5083316;28;20015;-72
2024/01/15 02:21:39;;;;;;;;;;;;;;;2.01;100.00;100347.81;5091616;28;20224;-72
2024/01/15 02:24:05;;;;;;;;;;;;;;;1.96;100.00;100342.72;5098481;28;19916;-72
2024/01/15 02:26:30;;;;;;;;;;;;;;;1.97;100.00;100328.94;5098786;28;19924;-72
2024/01/15 02:28:55;;;;;;;;;;;;;;;1.95;100.00;100324.66;5098342;28;20144;-72
2024/01/15 02:31:21;;;;;;;;;;;;;;;1.92;100.00;100322.97;5098102;28;20009;-72
2024/01/15 02:33:46;;;;;;;;;;;;;;;1.83;100.00;100330.84;5098261;28;19916;-72
2024/01/15 02:36:11;;;;;;;;;;;;;;;1.81;100.00;100324.84;5093234;28;19920;-73
2024/01/15 02:38:36;;;;;;;;;;;;;;;1.85;100.00;100332.50;5078051;28;20116;-73
2024/01/15 02:41:02;;;;;;;;;;;;;;;1.86;100.00;100334.22;5093522;28;19973;-73
2024/01/15 02:43:27;;;;;;;;;;;;;;;1.75;100.00;100320.63;5079352;28;19931;-72
2024/01/15 02:45:52;;;;;;;;;;;;;;;1.77;100.00;100330.94;5077892;28;19983;-72
2024/01/15 02:48:17;;;;;;;;;;;;;;;1.82;100.00;100334.28;5097600;28;19927;-72
2024/01/15 02:50:43;;;;;;;;;;;;;;;1.82;100.00;100335.16;5097592;28;19920;-72
2024/01/15 02:53:08;;;;;;;;;;;;;;;1.83;100.00;100333.41;5081259;28;19979;-72
2024/01/15 02:55:33;;;;;;;;;;;;;;;1.91;100.00;100331.56;5093476;28;20203;-73
2024/01/15 02:57:59;;;;;;;;;;;;;;;2.02;100.00;100327.16;5096943;28;20473;-72
2024/01/15 03:00:24;;;;;;;;;;;;;;;2.02;100.00;100334.00;5098212;28;20428;-72
2024/01/15 03:02:50;;;;;;;;;;;;;;;2.08;100.00;100339.97;5097581;28;19920;-72
2024/01/15 03:05:15;;;;;;;;;;;;;;;2.09;100.00;100341.69;5098122;28;20079;-72
2024/01/15 03:07:41;;;;;;;;;;;;;;;2.04;100.00;100351.22;5088148;28;20185;-72
2024/01/15 03:10:07;;;;;;;;;;;;;;;2.08;100.00;100347.72;5088284;28;19993;-72
2024/01/15 03:12:32;;;;;;;;;;;;;;;2.09;100.00;100346.84;5096340;28;20209;-72
2024/01/15 03:14:57;;;;;;;;;;;;;;;2.11;100.00;100349.38;5097510;28;19923;-72
2024/01/15 03:17:22;;;;;;;;;;;;;;;2.12;100.00;100338.19;5097393;28;20239;-72
2024/01/15 03:19:49;;;;;;;;;;;;;;;2.12;100.00;100333.03;5097425;28;19982;-72
2024/01/15 03:22:14;;;;;;;;;;;;;;;1.96;100.00;100329.78;5097366;28;19922;-72
2024/01/15 03:24:40;;;;;;;;;;;;;;;2.04;100.00;100327.13;5097845;28;20007;-72
2024/01/15 03:27:05;;;;;;;;;;;;;;;2.03;100.00;100315.91;5096849;28;19962;-72
2024/01/15 03:29:30;;;;;;;;;;;;;;;2.09;100.00;100302.94;5087277;28;19994;-72
2024/01/15 03:31:55;;;;;;;;;;;;;;;2.09;100.00;100296.91;5083058;28;20001;-72
2024/01/15 03:34:21;;;;;;;;;;;;;;;2.13;100.00;100310.63;5091658;28;19912;-72
2024/01/15 03:36:46;;;;;;;;;;;;;;;2.17;100.00;100301.97;5095688;28;19920;-72
2024/01/15 03:39:11;;;;;;;;;;;;;;;2.16;100.00;100308.84;5096214;28;20153;-72
2024/01/15 03:41:36;;;;;;;;;;;;;;;2.01;100.00;100315.09;5097966;28;20250;-73
2024/01/15 03:44:02;;;;;;;;;;;;;;;1.95;100.00;100322.06;5086433;28;19920;-74
2024/01/15 03:46:27;;;;;;;;;;;;;;;1.98;100.00;100324.63;5076946;28;19942;-74
2024/01/15 03:48:52;;;;;;;;;;;;;;;1.89;100.00;100316.13;5084388;28;19920;-74
2024/01/15 03:51:18;;;;;;;;;;;;;;;1.76;100.00;100311.97;5097224;28;19943;-74
2024/01/15 03:53:43;;;;;;;;;;;;;;;1.75;100.00;100310.28;5094172;28;19920;-74
2024/01/15 03:56:08;;;;;;;;;;;;;;;1.80;100.00;100302.47;5097187;28;19991;-74
2024/01/15 03:58:34;;;;;;;;;;;;;;;1.82;100.00;100296.44;5094663;28;19924;-74
2024/01/15 04:00:59;;;;;;;;;;;;;;;1.92;100.00;100290.25;5076330;28;19919;-74
2024/01/15 04:03:24;;;;;;;;;;;;;;;2.03;100.00;100290.09;5094903;28;19916;-74
2024/01/15 04:05:49;;;;;;;;;;;;;;;2.04;100.00;100290.97;5096202;28;19995;-74
2024/01/15 04:08:15;;;;;;;;;;;;;;;2.08;100.00;100284.88;5096978;28;19916;-74
2024/01/15 04:10:40;;;;;;;;;;;;;;;2.12;100.00;100286.53;5082214;28;19917;-74
2024/01/15 04:13:05;;;;;;;;;;;;;;;2.11;100.00;100287.38;5076318;28;19958;-74
2024/01/15 04:15:30;;;;;;;;;;;;;;;2.05;100.00;100285.75;5095453;28;20211;-74
2024/01/15 04:17:56;;;;;;;;;;;;;;;2.09;100.00;100287.44;5096021;28;20733;-74
2024/01/15 04:20:21;;;;;;;;;;;;;;;2.06;100.00;100290.06;5095916;28;19922;-74
2024/01/15 04:22:46;;;;;;;;;;;;;;;2.03;100.00;100297.84;5096419;28;19993;-74
2024/01/15 04:25:11;;;;;;;;;;;;;;;2.11;100.00;100292.56;5094295;28;19916;-74
2024/01/15 04:27:37;;;;;;;;;;;;;;;1.96;100.00;100308.28;5096647;28;19979;-74
2024/01/15 04:30:02;;;;;;;;;;;;;;;1.89;100.00;100294.59;5094953;28;19923;-74
2024/01/15 04:32:27;;;;;;;;;;;;;;;1.79;100.00;100280.13;5096281;28;20230;-74
2024/01/15 04:34:52;;;;;;;;;;;;;;;1.78;100.00;100281.81;5095094;28;20308;-72
2024/01/15 04:37:18;;;;;;;;;;;;;;;1.67;100.00;100283.69;5095570;28;19996;-72
2024/01/15 04:39:43;;;;;;;;;;;;;;;1.87;100.00;100288.59;5093327;28;19970;-72
2024/01/15 04:42:08;;;;;;;;;;;;;;;1.72;100.00;100289.66;5080722;28;19919;-72
2024/01/15 04:44:33;;;;;;;;;;;;;;;1.61;100.00;100309.59;5095967;28;20155;-72
2024/01/15 04:46:59;;;;;;;;;;;;;;;1.53;100.00;100304.53;5077461;28;19920;-73
2024/01/15 04:49:27;;;;;;;;;;;;;;;1.23;100.00;100303.16;5098027;28;20053;-73
2024/01/15 04:51:52;;;;;;;;;;;;;;;1.11;100.00;100302.44;5110267;28;19920;-73
2024/01/15 04:54:18;;;;;;;;;;;;;;;0.98;100.00;100294.81;5095565;28;19920;-73
2024/01/15 04:56:43;;;;;;;;;;;;;;;0.76;100.00;100289.84;5096002;28;19938;-73
2024/01/15 04:59:09;;;;;;;;;;;;;;;0.80;100.00;100273.53;5094383;28;19924;-74
2024/01/15 05:01:34;;;;;;;;;;;;;;;1.00;100.00;100262.13;5094809;28;19923;-74
2024/01/15 05:03:59;;;;;;;;;;;;;;;1.19;100.00;100253.31;5088815;28;20227;-74
2024/01/15 05:06:25;;;;;;;;;;;;;;;1.21;100.00;100246.41;5095702;28;19982;-74
2024/01/15 05:08:50;;;;;;;;;;;;;;;1.23;100.00;100246.41;5094580;28;20158;-74
2024/01/15 05:11:15;;;;;;;;;;;;;;;1.22;100.00;100244.69;5095360;28;19987;-74
2024/01/15 05:13:40;;;;;;;;;;;;;;;1.28;100.00;100239.47;5080216;28;19958;-74
2024/01/15 05:16:06;;;;;;;;;;;;;;;1.28;100.00;100237.72;5093329;28;19920;-74
2024/01/15 05:18:31;;;;;;;;;;;;;;;1.29;100.00;100234.28;5087325;28;19928;-72
2024/01/15 05:20:56;;;;;;;;;;;;;;;1.37;100.00;100243.66;5091547;28;19920;-72
2024/01/15 05:23:21;;;;;;;;;;;;;;;1.27;100.00;100251.50;5082113;28;19961;-74
2024/01/15 05:25:47;;;;;;;;;;;;;;;1.24;100.00;100248.97;5079014;28;19929;-74
2024/01/15 05:28:13;;;;;;;;;;;;;;;1.26;100.00;100251.53;5098044;28;20207;-74
2024/01/15 05:30:38;;;;;;;;;;;;;;;1.08;100.00;100257.75;5089459;28;19920;-74
2024/01/15 05:33:04;;;;;;;;;;;;;;;1.11;100.00;100256.00;5081460;28;20142;-74
2024/01/15 05:35:29;;;;;;;;;;;;;;;1.18;100.00;100254.19;5094650;28;20157;-74
2024/01/15 05:37:54;;;;;;;;;;;;;;;1.19;100.00;100250.75;5094915;28;19924;-74
2024/01/15 05:40:20;;;;;;;;;;;;;;;1.22;100.00;100252.41;5094788;28;19961;-74
2024/01/15 05:42:45;;;;;;;;;;;;;;;1.23;100.00;100243.81;5095734;28;20267;-74
2024/01/15 05:45:10;;;;;;;;;;;;;;;1.27;100.00;100251.50;5105293;28;19990;-74
2024/01/15 05:47:35;;;;;;;;;;;;;;;1.36;100.00;100244.53;5094959;28;20199;-74
2024/01/15 05:50:01;;;;;;;;;;;;;;;1.37;100.00;100231.63;5091313;28;20141;-74
2024/01/15 05:52:26;;;;;;;;;;;;;;;1.37;100.00;100228.19;5088268;28;20126;-74
2024/01/15 05:54:52;;;;;;;;;;;;;;;1.47;100.00;100225.44;5111113;28;19920;-72
2024/01/15 05:57:17;;;;;;;;;;;;;;;1.48;100.00;100227.16;5094595;28;20207;-72
2024/01/15 05:59:43;;;;;;;;;;;;;;;1.55;100.00;100225.38;5094814;28;20258;-72
2024/01/15 06:02:08;;;;;;;;;;;;;;;1.62;100.00;100228.69;5075623;28;20238;-74
2024/01/15 06:04:33;;;;;;;;;;;;;;;1.68;100.00;100228.63;5089023;28;19935;-73
2024/01/15 06:06:58;;;;;;;;;;;;;;;1.66;100.00;100232.97;5078110;28;20003;-73
2024/01/15 06:09:24;;;;;;;;;;;;;;;1.73;100.00;100232.00;5087326;28;20308;-73
2024/01/15 06:11:49;;;;;;;;;;;;;;;1.80;100.00;100227.59;5085065;28;19920;-73
2024/01/15 06:14:14;;;;;;;;;;;;;;;1.87;100.00;100239.53;5094910;28;19920;-73
2024/01/15 06:16:39;;;;;;;;;;;;;;;1.86;100.00;100255.91;5085483;28;19944;-74
2024/01/15 06:19:04;;;;;;;;;;;;;;;1.48;100.00;100262.44;5090540;28;19924;-74
2024/01/15 06:21:30;;;;;;;;;;;;;;;1.08;100.00;100262.91;5088348;28;19921;-74
2024/01/15 06:23:56;;;;;;;;;;;;;;;0.85;100.00;100269.16;5081841;28;19920;-74
2024/01/15 06:26:22;;;;;;;;;;;;;;;0.72;100.00;100273.56;5091140;28;19953;-74
2024/01/15 06:28:47;;;;;;;;;;;;;;;0.55;100.00;100276.31;5080475;28;20231;-74
2024/01/15 06:31:12;;;;;;;;;;;;;;;0.52;100.00;100263.44;5094040;28;19916;-74
2024/01/15 06:33:38;;;;;;;;;;;;;;;0.65;100.00;100250.44;5091104;28;19920;-74
2024/01/15 06:36:03;;;;;;;;;;;;;;;0.71;100.00;100245.22;5092643;28;20148;-74
2024/01/15 06:38:28;;;;;;;;;;;;;;;0.64;100.00;100247.03;5095065;28;19924;-75
2024/01/15 06:40:54;;;;;;;;;;;;;;;0.69;100.00;100240.13;5093700;28;19916;-74
2024/01/15 06:43:19;;;;;;;;;;;;;;;0.66;100.00;100247.03;5090535;28;19920;-75
2024/01/15 06:45:44;;;;;;;;;;;;;;;0.66;100.00;100249.59;5094556;28;19920;-75
2024/01/15 06:48:10;;;;;;;;;;;;;;;0.71;100.00;100255.53;5080422;28;19935;-75
2024/01/15 06:50:35;;;;;;;;;;;;;;;0.73;100.00;100252.09;5096526;28;20204;-75
2024/01/15 06:53:00;;;;;;;;;;;;;;;0.89;100.00;100239.91;5087266;28;19924;-75
2024/01/15 06:55:26;;;;;;;;;;;;;;;1.06;100.00;100233.72;5090455;28;19947;-75
2024/01/15 06:57:51;;;;;;;;;;;;;;;1.13;100.00;100227.63;5083466;28;19925;-75
2024/01/15 07:00:19;;;;;;;;;;;;;;;1.14;100.00;100229.31;5092270;28;19912;-75
2024/01/15 07:02:44;;;;;;;;;;;;;;;1.05;100.00;100234.56;5091645;28;20165;-75
2024/01/15 07:05:10;;;;;;;;;;;;;;;1.08;100.00;100234.53;5091202;28;19931;-75
2024/01/15 07:07:36;;;;;;;;;;;;;;;1.03;100.00;100242.31;5087052;28;19967;-75
2024/01/15 07:10:01;;;;;;;;;;;;;;;0.97;100.00;100252.72;5095599;28;19920;-75
2024/01/15 07:12:27;;;;;;;;;;;;;;;1.06;100.00;100234.56;5098193;28;19916;-74
2024/01/15 07:14:52;;;;;;;;;;;;;;;1.18;100.00;100235.28;5086907;28;19957;-74
2024/01/15 07:17:17;;;;;;;;;;;;;;;1.21;100.00;100235.25;5094694;28;19919;-74
2024/01/15 07:19:42;;;;;;;;;;;;;;;1.20;100.00;100224.09;5096715;28;20101;-74
2024/01/15 07:22:08;;;;;;;;;;;;;;;1.26;100.00;100223.16;5095937;28;19927;-74
2024/01/15 07:24:36;;;;;;;;;;;;;;;1.34;100.00;100216.16;5094913;28;19927;-74
2024/01/15 07:27:01;;;;;;;;;;;;;;;1.41;100.00;100206.63;5093288;28;19981;-74
2024/01/15 07:29:26;;;;;;;;;;;;;;;1.44;100.00;100204.00;5094457;28;19923;-74
2024/01/15 07:31:52;;;;;;;;;;;;;;;1.43;100.00;100215.19;5098010;28;19930;-74
2024/01/15 07:34:17;;;;;;;;;;;;;;;1.37;100.00;100205.81;5102294;28;20231;-74
2024/01/15 07:36:46;;;;;;;;;;;;;;;1.37;100.00;100210.13;5104108;28;20076;-74
2024/01/15 07:39:11;;;;;;;;;;;;;;;1.30;100.00;100201.59;5105262;28;19969;-74
2024/01/15 07:41:37;;;;;;;;;;;;;;;1.24;100.00;100212.84;5098661;28;19983;-74
2024/01/15 07:44:02;;;;;;;;;;;;;;;1.27;100.00;100212.78;5093206;28;20218;-74
2024/01/15 07:46:27;;;;;;;;;;;;;;;1.36;100.00;100214.41;5095086;28;19976;-74
2024/01/15 07:48:56;;;;;;;;;;;;;;;1.40;100.00;100226.44;5093916;28;19920;-74
2024/01/15 07:51:24;;;;;;;;;;;;;;;1.38;100.00;100227.28;5095067;28;19981;-74
2024/01/15 07:53:50;;;;;;;;;;;;;;;1.37;100.00;100226.47;5094733;28;20249;-74
2024/01/15 07:56:15;;;;;;;;;;;;;;;1.33;100.00;100228.22;5096449;28;19916;-73
2024/01/15 07:58:41;;;;;;;;;;;;;;;1.34;100.00;100242.81;5094776;28;19924;-74
2024/01/15 08:01:06;;;;;;;;;;;;;;;1.35;100.00;100230.78;5095515;28;19982;-74
2024/01/15 08:03:31;;;;;;;;;;;;;;;1.33;100.00;100241.13;5094177;28;19916;-74
2024/01/15 08:05:59;;;;;;;;;;;;;;;1.29;100.00;100246.31;5093296;28;19920;-74
2024/01/15 08:08:24;;;;;;;;;;;;;;;1.28;100.00;100242.91;5095360;28;20188;-74
2024/01/15 08:10:50;;;;;;;;;;;;;;;1.28;100.00;100240.31;5095246;28;19920;-74
2024/01/15 08:13:15;;;;;;;;;;;;;;;1.29;100.00;100217.94;5096552;28;19987;-74
2024/01/15 08:15:41;;;;;;;;;;;;;;;1.28;100.00;100224.00;5094103;28;19923;-74
2024/01/15 08:18:06;;;;;;;;;;;;;;;1.28;100.00;100218.84;5096186;28;19924;-74
2024/01/15 08:20:31;;;;;;;;;;;;;;;1.24;100.00;100236.06;5095742;28;20344;-74
2024/01/15 08:22:57;;;;;;;;;;;;;;;1.26;100.00;100234.31;5095825;28;20208;-74
2024/01/15 08:25:22;;;;;;;;;;;;;;;1.26;100.00;100238.63;5095140;28;19916;-74
2024/01/15 08:27:47;;;;;;;;;;;;;;;1.21;100.00;100241.25;5097548;28;19920;-74
2024/01/15 08:30:12;;;;;;;;;;;;;;;1.23;100.00;100243.81;5094931;28;19938;-74
2024/01/15 08:32:42;;;;;;;;;;;;;;;1.23;100.00;100246.41;5095716;28;20008;-74
2024/01/15 08:35:07;;;;;;;;;;;;;;;1.23;100.00;100247.25;5096347;28;20180;-74
2024/01/15 08:37:32;;;;;;;;;;;;;;;1.25;100.00;100253.25;5098071;28;20283;-74
2024/01/15 08:39:57;;;;;;;;;;;;;;;1.29;100.00;100254.06;5115578;28;19924;-74
2024/01/15 08:42:22;;;;;;;;;;;;;;;1.29;100.00;100254.94;5082970;28;19923;-74
2024/01/15 08:44:48;;;;;;;;;;;;;;;1.33;100.00;100250.59;5089750;28;19959;-74
2024/01/15 08:47:13;;;;;;;;;;;;;;;1.36;100.00;100244.53;5093507;28;19920;-74
2024/01/15 08:49:40;;;;;;;;;;;;;;;1.40;100.00;100248.78;5095838;28;19919;-74
2024/01/15 08:52:05;;;;;;;;;;;;;;;1.44;100.00;100255.63;5098034;28;19912;-74
2024/01/15 08:54:30;;;;;;;;;;;;;;;1.45;100.00;100254.72;5099578;28;20111;-74
2024/01/15 08:56:56;;;;;;;;;;;;;;;1.43;100.00;100241.84;5096745;28;20025;-74
2024/01/15 08:59:25;;;;;;;;;;;;;;;1.46;100.00;100257.31;5093705;28;19924;-74
2024/01/15 09:01:50;;;;;;;;;;;;;;;1.49;100.00;100257.28;5094517;28;19919;-74
2024/01/15 09:04:15;;;;;;;;;;;;;;;1.58;100.00;100261.44;5094740;28;19919;-74
2024/01/15 09:06:44;;;;;;;;;;;;;;;1.64;100.00;100268.28;5094439;28;19927;-74
2024/01/15 09:09:10;;;;;;;;;;;;;;;1.71;100.00;100257.84;5091685;28;20157;-74
2024/01/15 09:11:35;;;;;;;;;;;;;;;1.72;100.00;100269.84;5093118;28;20243;-74
2024/01/15 09:14:00;;;;;;;;;;;;;;;1.67;100.00;100282.00;5094097;28;20503;-74
2024/01/15 09:16:26;;;;;;;;;;;;;;;1.61;100.00;100291.53;5092720;28;20008;-74
2024/01/15 09:18:51;;;;;;;;;;;;;;;1.53;100.00;100279.56;5093982;28;19932;-74
2024/01/15 09:21:16;;;;;;;;;;;;;;;1.51;100.00;100288.19;5094330;28;19922;-74
2024/01/15 09:23:41;;;;;;;;;;;;;;;1.46;100.00;100284.84;5096302;28;19935;-74
2024/01/15 09:26:08;;;;;;;;;;;;;;;1.48;100.00;100280.50;5093758;28;19958;-74
2024/01/15 09:28:33;;;;;;;;;;;;;;;1.50;100.00;100269.28;5093135;28;20219;-74
2024/01/15 09:30:58;;;;;;;;;;;;;;;1.46;100.00;100261.63;5092741;28;19919;-74
2024/01/15 09:33:23;;;;;;;;;;;;;;;1.43;100.00;100264.22;5096033;28;19979;-74
2024/01/15 09:35:48;;;;;;;;;;;;;;;1.45;100.00;100268.47;5079390;28;19931;-74
2024/01/15 09:38:14;;;;;;;;;;;;;;;1.47;100.00;100271.91;5081923;28;19924;-74
2024/01/15 09:40:43;;;;;;;;;;;;;;;1.50;100.00;100271.88;5072141;28;19920;-74
2024/01/15 09:43:08;;;;;;;;;;;;;;;1.55;100.00;100276.97;5073723;28;19920;-74
2024/01/15 09:45:33;;;;;;;;;;;;;;;1.60;100.00;100264.00;5076323;28;19932;-74
2024/01/15 09:47:58;;;;;;;;;;;;;;;1.68;100.00;100268.19;5072585;28;19952;-74
2024/01/15 09:50:24;;;;;;;;;;;;;;;1.75;100.00;100270.69;5073426;28;19967;-74
2024/01/15 09:52:50;;;;;;;;;;;;;;;1.76;100.00;100270.66;5071706;28;19931;-74
2024/01/15 09:55:16;;;;;;;;;;;;;;;1.79;100.00;100267.22;5073604;28;19962;-74
2024/01/15 09:57:41;;;;;;;;;;;;;;;1.71;100.00;100264.72;5076569;28;20203;-74
2024/01/15 10:00:07;;;;;;;;;;;;;;;1.67;100.00;100265.63;5079453;28;19999;-74
2024/01/15 10:02:32;;;;;;;;;;;;;;;1.59;100.00;100278.66;5089771;28;20100;-74
2024/01/15 10:04:58;;;;;;;;;;;;;;;1.57;100.00;100298.47;5084302;28;19920;-74
2024/01/15 10:07:25;;;;;;;;;;;;;;;1.47;100.00;100314.91;5087549;28;20277;-74
2024/01/15 10:09:50;;;;;;;;;;;;;;;1.28;100.00;100306.53;5088418;28;19920;-74
2024/01/15 10:12:15;;;;;;;;;;;;;;;1.28;100.00;100306.53;5088862;28;19923;-74
2024/01/15 10:14:42;;;;;;;;;;;;;;;1.24;100.00;100300.56;5080640;28;19955;-74
2024/01/15 10:17:11;;;;;;;;;;;;;;;1.21;100.00;100299.75;5070863;28;19927;-74
2024/01/15 10:19:37;;;;;;;;;;;;;;;1.20;100.00;100295.44;5083391;28;19924;-74
2024/01/15 10:22:03;;;;;;;;;;;;;;;1.22;100.00;100306.59;5087530;28;19931;-74
2024/01/15 10:24:28;;;;;;;;;;;;;;;1.20;100.00;100300.59;5089702;28;19920;-74
2024/01/15 10:27:04;;;;;;;;;;;;;;;1.21;100.00;100298.00;5087737;28;19926;-74
2024/01/15 10:29:29;;;;;;;;;;;;;;;1.28;100.00;100301.38;5087919;28;19986;-74
2024/01/15 10:31:54;;;;;;;;;;;;;;;1.29;100.00;100292.75;5087480;28;19932;-74
2024/01/15 10:34:20;;;;;;;;;;;;;;;1.30;100.00;100308.22;5078303;28;19975;-74
2024/01/15 10:36:47;;;;;;;;;;;;;;;1.34;100.00;100296.16;5088808;28;19961;-74
2024/01/15 10:39:13;;;;;;;;;;;;;;;1.36;100.00;100286.66;5088214;28;19924;-74
2024/01/15 10:41:39;;;;;;;;;;;;;;;1.40;100.00;100287.47;5093506;28;19927;-74
2024/01/15 10:44:05;;;;;;;;;;;;;;;1.47;100.00;100284.78;5092287;28;19923;-74
2024/01/15 10:46:30;;;;;;;;;;;;;;;1.50;100.00;100287.34;5095705;28;19920;-74
2024/01/15 10:48:55;;;;;;;;;;;;;;;1.63;100.00;100293.22;5094109;28;19919;-73
2024/01/15 10:51:21;;;;;;;;;;;;;;;1.66;100.00;100298.34;5092940;28;20313;-73
2024/01/15 10:53:47;;;;;;;;;;;;;;;1.67;100.00;100302.66;5092658;28;19947;-74
2024/01/15 10:56:13;;;;;;;;;;;;;;;1.69;100.00;100308.66;5092419;28;19931;-74
2024/01/15 10:58:39;;;;;;;;;;;;;;;1.75;100.00;100304.25;5091121;28;20254;-74
2024/01/15 11:01:05;;;;;;;;;;;;;;;1.79;100.00;100306.78;5089020;28;19924;-74
2024/01/15 11:03:30;;;;;;;;;;;;;;;1.81;100.00;100296.44;5090890;28;19934;-74
2024/01/15 11:05:55;;;;;;;;;;;;;;;1.84;100.00;100301.56;5086742;28;19927;-73
2024/01/15 11:08:21;;;;;;;;;;;;;;;1.90;100.00;100299.75;5081423;28;20197;-74
2024/01/15 11:10:49;;;;;;;;;;;;;;;1.97;100.00;100300.53;5082478;28;19920;-74
2024/01/15 11:13:20;;;;;;;;;;;;;;;2.04;100.00;100299.56;5093216;28;20007;-74
2024/01/15 11:15:58;;;;;;;;;;;;;;;2.08;100.00;100292.63;5082072;28;20203;-74
2024/01/15 11:18:23;;;;;;;;;;;;;;;2.11;100.00;100284.81;5076024;28;19928;-74
2024/01/15 11:21:07;;;;;;;;;;;;;;;2.16;100.00;100290.75;5081780;28;19927;-74
2024/01/15 11:23:47;;;;;;;;;;;;;;;2.19;100.00;100295.91;5090853;28;19920;-74
2024/01/15 11:26:31;;;;;;;;;;;;;;;2.21;100.00;100296.72;5090499;28;19927;-74
2024/01/15 11:28:57;;;;;;;;;;;;;;;2.22;100.00;100302.72;5087556;28;20225;-74
2024/01/15 11:31:40;;;;;;;;;;;;;;;2.24;100.00;100309.59;5092146;28;19920;-74
2024/01/15 11:34:09;;;;;;;;;;;;;;;2.27;100.00;100339.69;5091939;28;20212;-74
2024/01/15 11:36:46;;;;;;;;;;;;;;;1.91;100.00;100319.53;5091834;28;20092;-74
2024/01/15 11:39:27;;;;;;;;;;;;;;;1.83;100.00;100305.03;5089009;28;20808;-74
2024/01/15 11:41:54;;;;;;;;;;;;;;;1.78;100.00;100327.44;5086466;28;19920;-74
2024/01/15 11:44:19;;;;;;;;;;;;;;;1.77;100.00;100331.78;5089337;28;19927;-74
2024/01/15 11:46:56;;;;;;;;;;;;;;;1.71;100.00;100326.66;5087579;28;20208;-74
2024/01/15 11:49:37;;;;;;;;;;;;;;;1.59;100.00;100337.16;5089183;28;20226;-74
2024/01/15 11:52:04;;;;;;;;;;;;;;;1.53;100.00;100332.94;5087507;28;19920;-74
2024/01/15 11:54:32;;;;;;;;;;;;;;;1.54;100.00;100340.63;5087663;28;20215;-73
2024/01/15 11:56:59;;;;;;;;;;;;;;;1.55;100.00;100354.41;5083720;28;20325;-74
2024/01/15 11:59:24;;;;;;;;;;;;;;;1.48;100.00;100374.25;5091535;28;19931;-74
2024/01/15 12:01:50;;;;;;;;;;;;;;;1.45;100.00;100350.22;5092021;28;20132;-74
2024/01/15 12:04:17;;;;;;;;;;;;;;;1.51;100.00;100373.34;5089377;28;19989;-74
2024/01/15 12:06:42;;;;;;;;;;;;;;;1.51;100.00;100355.28;5091373;28;19977;-74
2024/01/15 12:09:08;;;;;;;;;;;;;;;1.43;100.00;100362.28;5089971;28;19924;-74
2024/01/15 12:11:35;;;;;;;;;;;;;;;1.48;100.00;100356.19;5091989;28;20262;-74
2024/01/15 12:14:00;;;;;;;;;;;;;;;1.50;100.00;100359.63;5090577;28;19920;-74
2024/01/15 12:16:26;;;;;;;;;;;;;;;1.53;100.00;100364.75;5091511;28;20216;-74
2024/01/15 12:18:51;;;;;;;;;;;;;;;1.61;100.00;100362.06;5091018;28;19970;-74
2024/01/15 12:21:16;;;;;;;;;;;;;;;1.70;100.00;100366.28;5091284;28;20151;-74
2024/01/15 12:23:42;;;;;;;;;;;;;;;1.79;100.00;100363.59;5090795;28;20233;-74
2024/01/15 12:26:07;;;;;;;;;;;;;;;1.83;100.00;100370.41;5091219;28;19920;-74
2024/01/15 12:28:32;;;;;;;;;;;;;;;1.90;100.00;100368.63;5092294;28;19923;-74